Time;durP1;ratioP1;P1;durP2;ratioP2;P2;SDS_P1;SDS_P2;PMS_P1;PMS_P2;Temp;Humidity;BMP_temperature;BMP_pressure;BME280_temperature;BME280_humidity;BME280_pressure;Samples;Min_cycle;Max_cycle;Signal;HPM_P1;HPM_P2
2021/12/05 03:22:34;;;;;;;130.77;33.08;;;;;;;0.73;100.00;92922.00;5661901;23;20047;-82
2021/12/05 03:25:18;;;;;;;124.35;30.85;;;;;;;0.64;100.00;92924.25;4904333;29;20040;-83
2021/12/05 03:27:44;;;;;;;223.23;35.13;;;;;;;0.61;100.00;92931.66;4912152;29;20464;-85
2021/12/05 03:30:12;;;;;;;369.67;38.97;;;;;;;0.58;100.00;92945.84;4912879;29;20055;-85
2021/12/05 03:32:38;;;;;;;223.77;37.95;;;;;;;0.68;100.00;92927.88;4917738;29;20025;-83
2021/12/05 03:35:06;;;;;;;416.33;43.97;;;;;;;0.50;100.00;92923.03;4918143;29;20039;-85
2021/12/05 03:37:32;;;;;;;205.68;39.22;;;;;;;0.55;100.00;92925.66;4917742;29;20056;-85
2021/12/05 03:39:57;;;;;;;139.52;37.45;;;;;;;0.63;100.00;92933.00;4911046;29;20079;-85
2021/12/05 03:42:23;;;;;;;147.02;36.70;;;;;;;0.51;100.00;92927.19;4914736;29;20052;-83
2021/12/05 03:44:48;;;;;;;117.55;32.58;;;;;;;0.57;100.00;92915.91;4928411;29;20034;-85
2021/12/05 03:47:32;;;;;;;103.32;31.55;;;;;;;0.57;100.00;92903.00;4896924;29;20437;-83
2021/12/05 03:49:58;;;;;;;104.03;29.58;;;;;;;0.60;100.00;92905.13;4912547;29;20124;-83
2021/12/05 03:52:24;;;;;;;119.68;31.00;;;;;;;0.41;100.00;92894.34;4905904;29;20040;-83
2021/12/05 03:54:49;;;;;;;108.32;30.13;;;;;;;0.36;100.00;92896.84;4919600;29;20043;-85
2021/12/05 03:57:15;;;;;;;113.90;30.88;;;;;;;0.37;100.00;92906.16;4937266;29;20095;-83
2021/12/05 03:59:41;;;;;;;107.18;29.13;;;;;;;0.40;100.00;92898.69;4921766;29;20493;-83
2021/12/05 04:02:07;;;;;;;146.75;32.72;;;;;;;0.38;100.00;92889.66;4922613;29;20441;-85
2021/12/05 04:04:33;;;;;;;315.73;36.42;;;;;;;0.52;100.00;92908.91;4937072;29;20028;-83
2021/12/05 04:06:59;;;;;;;213.63;35.30;;;;;;;0.55;100.00;92899.91;4921220;29;20035;-85
2021/12/05 04:09:25;;;;;;;298.30;41.03;;;;;;;0.41;100.00;92897.69;4921234;29;20032;-83
2021/12/05 04:11:58;;;;;;;137.27;32.47;;;;;;;0.41;100.00;92894.34;4921137;29;20023;-83
2021/12/05 04:14:26;;;;;;;240.90;39.08;;;;;;;0.32;100.00;92903.50;4921195;29;20032;-83
2021/12/05 04:16:52;;;;;;;160.30;37.42;;;;;;;0.48;100.00;92905.22;4920978;29;20076;-83
2021/12/05 04:19:18;;;;;;;284.67;42.83;;;;;;;0.56;100.00;92912.56;4905565;29;20032;-85
2021/12/05 04:21:44;;;;;;;128.48;34.80;;;;;;;0.77;100.00;92919.75;4936806;29;20460;-85
2021/12/05 04:24:10;;;;;;;927.00;74.82;;;;;;;0.55;100.00;92913.56;4920699;29;20032;-83
2021/12/05 04:26:38;;;;;;;589.38;44.13;;;;;;;0.50;100.00;92918.69;4920978;29;20082;-85
2021/12/05 04:29:04;;;;;;;351.40;46.65;;;;;;;0.50;100.00;92926.41;4920946;29;20398;-83
2021/12/05 04:31:30;;;;;;;216.23;39.22;;;;;;;0.74;100.00;92927.97;4920934;29;20358;-83
2021/12/05 04:33:56;;;;;;;618.55;61.13;;;;;;;0.69;100.00;92931.25;4920608;29;20091;-83
2021/12/05 04:36:21;;;;;;;973.70;81.20;;;;;;;0.67;100.00;92923.75;4921971;29;20024;-85
2021/12/05 04:38:47;;;;;;;148.85;38.10;;;;;;;0.63;100.00;92921.88;4920707;29;20353;-83
2021/12/05 04:44:00;;;;;;;598.22;52.55;;;;;;;0.84;100.00;92912.59;4920723;29;20080;-85
2021/12/05 04:46:26;;;;;;;103.75;34.10;;;;;;;1.07;100.00;92914.09;4920720;29;20032;-85
2021/12/05 04:48:53;;;;;;;455.85;47.92;;;;;;;0.69;100.00;92936.41;4920695;29;20028;-83
2021/12/05 04:51:24;;;;;;;393.33;44.15;;;;;;;0.74;100.00;92951.94;4936148;29;20448;-85
2021/12/05 04:53:50;;;;;;;1041.05;69.90;;;;;;;0.67;100.00;92939.22;4904899;29;20402;-84
2021/12/05 04:56:16;;;;;;;1224.35;96.93;;;;;;;0.59;100.00;92939.66;4921432;29;20032;-83
2021/12/05 04:58:42;;;;;;;594.15;55.45;;;;;;;0.46;100.00;92940.78;4920385;29;20028;-83
2021/12/05 05:01:07;;;;;;;858.88;73.25;;;;;;;0.32;100.00;92945.50;4920259;29;20028;-85
2021/12/05 05:03:34;;;;;;;123.05;32.17;;;;;;;0.46;100.00;92948.50;4917360;29;20055;-84
2021/12/05 05:06:19;;;;;;;82.13;24.13;;;;;;;0.69;100.00;92939.75;4890951;29;20092;-83
2021/12/05 05:08:48;;;;;;;67.35;20.13;;;;;;;0.67;100.00;92941.03;4902511;29;20028;-85
2021/12/05 05:11:19;;;;;;;67.78;20.38;;;;;;;0.67;100.00;92943.63;4901216;29;20032;-86
2021/12/05 05:13:46;;;;;;;60.95;19.00;;;;;;;0.58;100.00;92938.09;4902349;29;20119;-83
2021/12/05 05:16:14;;;;;;;64.38;19.60;;;;;;;0.57;100.00;92957.13;4901165;29;20024;-83
2021/12/05 05:18:48;;;;;;;66.40;20.55;;;;;;;0.45;100.00;92951.34;4919655;29;20419;-85
2021/12/05 05:50:16;;;;;;;224.48;21.52;;;;;;;0.44;100.00;92954.94;4919459;29;20055;-85
2021/12/05 05:55:29;;;;;;;177.15;21.25;;;;;;;0.21;100.00;92956.69;4919563;29;20115;-86
2021/12/05 06:00:37;;;;;;;403.92;32.85;;;;;;;0.08;100.00;92961.16;4919864;29;20036;-86
2021/12/05 06:03:22;;;;;;;61.50;17.52;;;;;;;0.19;100.00;92966.47;4919136;29;20031;-85
2021/12/05 06:06:08;;;;;;;88.30;18.38;;;;;;;0.41;100.00;92976.78;4919156;29;20036;-85
2021/12/05 06:08:36;;;;;;;141.15;20.67;;;;;;;0.25;100.00;92968.06;4918998;29;20024;-85
2021/12/05 06:11:14;;;;;;;109.00;19.50;;;;;;;0.02;100.00;92967.25;4903814;29;20338;-86
2021/12/05 06:13:40;;;;;;;274.05;20.70;;;;;;;0.11;100.00;92973.56;4934843;29;20024;-84
2021/12/05 06:16:07;;;;;;;42.33;15.27;;;;;;;0.40;100.00;92980.41;4934991;29;20453;-83
2021/12/05 06:18:33;;;;;;;173.63;23.52;;;;;;;0.06;100.00;92986.38;4903417;29;20419;-86
2021/12/05 06:20:59;;;;;;;93.82;18.67;;;;;;;0.11;100.00;92986.44;4919199;29;20083;-86
2021/12/05 06:23:43;;;;;;;53.50;17.77;;;;;;;0.25;100.00;92986.91;4934544;29;20055;-83
2021/12/05 06:26:12;;;;;;;215.13;21.58;;;;;;;0.33;100.00;92984.91;4919221;29;20032;-83
2021/12/05 06:28:56;;;;;;;521.03;34.85;;;;;;;0.36;100.00;92980.09;4918896;29;20130;-83
2021/12/05 06:31:53;;;;;;;407.95;28.42;;;;;;;0.23;100.00;92983.00;4919233;29;20024;-83
2021/12/05 06:46:01;;;;;;;204.80;19.95;;;;;;;0.10;100.00;93007.28;4900119;29;20035;-85
2021/12/05 06:47:59;;;;;;;32.83;13.27;;;;;;;0.23;100.00;92998.44;4900083;29;20033;-85
2021/12/05 06:50:24;;;;;;;59.80;15.57;;;;;;;0.16;100.00;92998.59;4884724;29;20038;-85
2021/12/05 06:52:50;;;;;;;96.65;18.17;;;;;;;0.26;100.00;92993.59;4899992;29;20108;-85
2021/12/05 06:55:16;;;;;;;37.92;14.32;;;;;;;0.21;100.00;93000.47;4900036;29;20032;-85
2021/12/05 06:57:42;;;;;;;40.28;15.52;;;;;;;0.46;100.00;93009.59;4900075;29;20342;-85
2021/12/05 07:00:18;;;;;;;56.97;18.40;;;;;;;0.36;100.00;93003.28;4896399;29;20063;-85
2021/12/05 07:02:43;;;;;;;238.90;29.60;;;;;;;0.50;100.00;93018.41;4906927;29;20107;-85
2021/12/05 07:08:05;;;;;;;137.82;20.50;;;;;;;0.38;100.00;93008.97;4910362;29;20035;-84
2021/12/05 07:10:33;;;;;;;262.17;24.63;;;;;;;0.41;100.00;93002.56;4902808;29;20036;-85
2021/12/05 07:15:47;;;;;;;230.43;24.63;;;;;;;0.28;100.00;92998.50;4903454;29;20032;-85
2021/12/05 07:23:53;;;;;;;54.22;17.50;;;;;;;0.21;100.00;93027.00;4913515;29;20119;-85
2021/12/05 07:42:26;;;;;;;39.22;15.57;;;;;;;0.51;100.00;93007.06;4904291;29;20039;-85
2021/12/05 07:44:54;;;;;;;37.55;14.88;;;;;;;0.65;100.00;93008.28;4918356;29;20041;-85
2021/12/05 07:47:22;;;;;;;33.35;13.73;;;;;;;0.72;100.00;93005.53;4902781;29;20092;-85
2021/12/05 07:49:48;;;;;;;27.38;12.20;;;;;;;0.83;100.00;92996.91;4921626;29;20028;-84
2021/12/05 07:52:19;;;;;;;31.40;12.85;;;;;;;0.86;100.00;93002.59;4922734;29;20035;-85
2021/12/05 07:54:50;;;;;;;19.25;8.45;;;;;;;0.91;100.00;93012.97;4921492;29;20114;-85
2021/12/05 07:57:23;;;;;;;27.10;11.90;;;;;;;0.72;100.00;93027.94;4922791;29;20024;-85
2021/12/05 08:16:10;;;;;;;97.22;40.25;;;;;;;1.07;100.00;93024.25;4903299;29;20081;-84
2021/12/05 08:18:36;;;;;;;46.53;19.25;;;;;;;1.29;100.00;93031.19;4912522;29;20055;-86
2021/12/05 08:21:05;;;;;;;36.28;15.27;;;;;;;1.54;100.00;93026.28;4920963;29;20067;-85
2021/12/05 08:23:31;;;;;;;25.65;12.55;;;;;;;1.91;100.00;93026.63;4920664;29;20083;-86
2021/12/05 08:26:18;;;;;;;26.67;13.13;;;;;;;2.44;100.00;93025.94;4920942;29;20028;-85
2021/12/05 09:40:27;;;;;;;44.10;21.30;;;;;;;5.14;100.00;93025.25;4900888;29;20054;-81
2021/12/05 10:02:34;;;;;;;30.58;12.68;;;;;;;3.07;100.00;93004.53;4919577;29;20472;-84
2021/12/05 10:11:04;;;;;;;19.65;9.48;;;;;;;3.65;100.00;92978.50;4919156;29;20024;-83
2021/12/05 10:13:16;;;;;;;24.90;12.00;;;;;;;4.16;100.00;92981.38;4884037;29;20465;-84
2021/12/05 10:38:43;;;;;;;33.67;15.35;;;;;;;6.78;100.00;92977.56;4923024;29;20119;-84
2021/12/05 10:41:23;;;;;;;30.17;12.60;;;;;;;6.61;100.00;92969.41;4907628;29;20028;-83
2021/12/05 10:43:54;;;;;;;65.85;27.10;;;;;;;5.73;100.00;92962.34;4908483;29;20039;-84
2021/12/05 10:46:22;;;;;;;22.00;10.63;;;;;;;6.30;100.00;92964.50;4922806;29;20477;-85
2021/12/05 10:49:06;;;;;;;17.85;8.68;;;;;;;6.10;100.00;92948.06;4923923;29;20035;-84
2021/12/05 10:51:37;;;;;;;32.78;16.08;;;;;;;6.15;100.00;92945.41;4923833;29;20103;-84
2021/12/05 10:54:11;;;;;;;24.15;12.80;;;;;;;5.87;100.00;92946.88;4907114;29;20095;-85
2021/12/05 10:56:47;;;;;;;19.88;10.57;;;;;;;5.68;100.00;92941.59;4907046;29;20123;-85
2021/12/05 10:59:17;;;;;;;19.17;8.77;;;;;;;5.48;100.00;92946.66;4923736;29;20118;-84
2021/12/05 11:05:03;;;;;;;14.00;7.53;;;;;;;4.64;100.00;92937.72;4922603;29;20039;-84
2021/12/05 11:07:38;;;;;;;17.90;9.50;;;;;;;4.88;100.00;92934.53;4938387;29;20390;-85
2021/12/05 11:10:10;;;;;;;17.92;9.75;;;;;;;4.80;100.00;92932.47;4906660;29;20043;-84
2021/12/05 11:12:35;;;;;;;16.58;8.60;;;;;;;4.49;100.00;92935.16;4920248;29;20079;-84
2021/12/05 11:17:50;;;;;;;16.45;8.43;;;;;;;4.32;100.00;92923.28;4922417;29;20472;-85
2021/12/05 11:20:29;;;;;;;16.30;8.40;;;;;;;4.40;100.00;92916.78;4922010;29;20040;-84
2021/12/05 11:22:54;;;;;;;27.60;11.75;;;;;;;4.39;100.00;92908.22;4907634;29;20103;-85
2021/12/05 11:25:31;;;;;;;17.45;8.88;;;;;;;4.31;100.00;92907.97;4921890;29;20028;-85
2021/12/05 11:28:03;;;;;;;30.33;15.95;;;;;;;4.37;100.00;92905.13;4937601;29;20079;-85
2021/12/05 11:30:34;;;;;;;20.33;10.23;;;;;;;4.67;100.00;92900.84;4921970;29;20032;-85
2021/12/05 11:33:05;;;;;;;34.55;16.48;;;;;;;4.87;100.00;92891.41;4921784;29;20540;-84
2021/12/05 11:35:37;;;;;;;21.83;11.27;;;;;;;5.03;100.00;92886.16;4923002;29;20052;-85
2021/12/05 11:38:05;;;;;;;21.98;11.60;;;;;;;5.10;100.00;92884.03;4921915;29;20039;-85
2021/12/05 11:40:44;;;;;;;19.73;9.85;;;;;;;5.13;100.00;92888.69;4920328;29;20034;-85
2021/12/05 11:43:13;;;;;;;15.73;8.48;;;;;;;5.08;100.00;92884.28;4892287;29;20028;-85
2021/12/05 11:46:01;;;;;;;19.63;9.18;;;;;;;5.12;100.00;92891.56;4902060;29;20088;-85
2021/12/05 11:48:34;;;;;;;12.85;7.18;;;;;;;5.19;100.00;92887.63;4899598;29;20035;-85
2021/12/05 11:51:02;;;;;;;13.80;6.40;;;;;;;5.06;100.00;92888.22;4887105;29;20028;-83
2021/12/05 11:53:46;;;;;;;11.35;6.63;;;;;;;5.12;100.00;92891.56;4902553;29;20020;-85
2021/12/05 11:56:20;;;;;;;12.18;6.93;;;;;;;5.06;100.00;92888.22;4902625;29;20040;-85
2021/12/05 11:59:07;;;;;;;15.00;7.53;;;;;;;5.22;100.00;92883.69;4902183;29;20035;-85
2021/12/05 12:01:52;;;;;;;12.18;6.32;;;;;;;5.50;100.00;92881.44;4923281;29;20066;-86
2021/12/05 12:04:24;;;;;;;9.63;5.50;;;;;;;5.60;100.00;92881.34;4921395;29;20032;-85
2021/12/05 12:07:07;;;;;;;11.40;5.68;;;;;;;5.76;100.00;92876.03;4905921;29;20134;-86
2021/12/05 12:09:32;;;;;;;10.20;4.80;;;;;;;5.74;100.00;92872.94;4902574;29;20055;-86
2021/12/05 12:11:58;;;;;;;15.88;4.72;;;;;;;5.82;100.00;92882.75;4922375;29;20024;-86
2021/12/05 12:14:24;;;;;;;7.90;4.43;;;;;;;5.63;100.00;92873.00;4901536;29;20029;-86
2021/12/05 12:16:50;;;;;;;8.10;4.38;;;;;;;5.40;100.00;92879.69;4904507;29;20029;-86
2021/12/05 12:19:21;;;;;;;10.07;5.05;;;;;;;5.34;100.00;92878.19;4900468;29;20036;-86
2021/12/05 12:21:48;;;;;;;8.00;4.80;;;;;;;5.21;100.00;92877.75;4902200;29;20438;-85
2021/12/05 12:24:15;;;;;;;15.05;5.03;;;;;;;5.46;100.00;92876.03;4887032;29;20036;-85
2021/12/05 12:26:41;;;;;;;7.97;4.15;;;;;;;5.53;100.00;92886.09;4901079;29;20323;-86
2021/12/05 12:29:09;;;;;;;9.05;4.40;;;;;;;5.33;100.00;92876.63;4902361;29;20104;-85
2021/12/05 12:31:36;;;;;;;10.30;5.22;;;;;;;5.40;100.00;92877.09;4902039;29;20449;-85
2021/12/05 12:34:08;;;;;;;11.50;5.57;;;;;;;5.24;100.00;92874.59;4903072;29;20426;-85
2021/12/05 12:36:46;;;;;;;9.03;4.90;;;;;;;5.26;100.00;92878.75;4902033;29;20037;-85
2021/12/05 12:39:18;;;;;;;10.98;5.20;;;;;;;5.37;100.00;92875.78;4902987;29;20268;-85
2021/12/05 12:42:19;;;;;;;12.07;5.72;;;;;;;5.51;100.00;92867.38;4903055;29;20433;-90
2021/12/05 12:47:58;;;;;;;11.52;5.30;;;;;;;4.83;100.00;92866.28;4901866;29;20043;-86
2021/12/05 12:50:29;;;;;;;9.30;4.55;;;;;;;4.84;100.00;92870.44;4886185;29;20039;-87
2021/12/05 12:53:10;;;;;;;9.20;4.70;;;;;;;4.93;100.00;92864.41;4920803;29;20421;-87
2021/12/05 12:55:38;;;;;;;12.38;5.68;;;;;;;4.90;100.00;92869.34;4920579;29;20024;-86
2021/12/05 12:58:07;;;;;;;8.65;4.25;;;;;;;4.64;100.00;92872.84;4919311;29;20028;-86
2021/12/05 13:00:36;;;;;;;11.60;5.53;;;;;;;4.67;100.00;92876.75;4904782;29;20092;-86
2021/12/05 13:03:14;;;;;;;132.07;58.40;;;;;;;4.62;100.00;92881.94;4904482;29;20035;-85
2021/12/05 13:11:14;;;;;;;22.38;11.73;;;;;;;4.95;100.00;92867.50;4921757;29;20039;-85
2021/12/05 13:13:42;;;;;;;23.23;12.43;;;;;;;5.44;100.00;92866.94;4918645;29;20123;-85
2021/12/05 13:16:14;;;;;;;8.23;4.70;;;;;;;5.68;100.00;92851.41;4904655;29;20444;-85
2021/12/05 13:18:40;;;;;;;9.93;4.50;;;;;;;5.51;100.00;92852.59;4921230;29;20039;-84
2021/12/05 13:21:13;;;;;;;11.05;4.82;;;;;;;5.27;100.00;92857.72;4888665;29;20116;-84
2021/12/05 13:23:47;;;;;;;10.10;5.97;;;;;;;4.98;100.00;92845.44;4933844;29;20035;-84
2021/12/05 13:26:32;;;;;;;13.52;5.70;;;;;;;4.76;100.00;92845.81;4919852;29;20442;-84
2021/12/05 13:29:15;;;;;;;12.10;6.25;;;;;;;4.45;100.00;92851.94;4919896;29;20501;-86
2021/12/05 13:31:56;;;;;;;12.35;6.38;;;;;;;4.62;100.00;92854.19;4935423;29;20035;-86
2021/12/05 13:34:40;;;;;;;14.43;7.00;;;;;;;4.64;100.00;92856.50;4919944;29;20130;-86
2021/12/05 13:37:05;;;;;;;13.30;7.07;;;;;;;4.47;100.00;92855.03;4919940;29;20144;-86
2021/12/05 13:39:32;;;;;;;11.43;6.75;;;;;;;4.58;100.00;92863.53;4935927;29;20036;-86
2021/12/05 13:42:06;;;;;;;21.52;9.80;;;;;;;4.45;100.00;92866.72;4903964;29;20078;-86
2021/12/05 13:45:00;;;;;;;34.53;18.00;;;;;;;4.59;100.00;92872.09;4920716;29;20034;-86
2021/12/05 13:47:45;;;;;;;16.90;7.53;;;;;;;4.45;100.00;92869.31;4933955;29;20035;-86
2021/12/05 13:50:23;;;;;;;15.85;8.27;;;;;;;4.59;100.00;92874.69;4919709;29;20398;-86
2021/12/05 13:53:07;;;;;;;15.63;8.93;;;;;;;4.62;100.00;92874.16;4919688;29;20056;-87
2021/12/05 13:55:37;;;;;;;;;;;;;;;4.34;100.00;92884.13;4921041;29;20032;-86
2021/12/05 13:58:40;;;;;;;16.73;8.77;;;;;;;4.20;100.00;92876.13;4918384;29;19915;-87
2021/12/05 14:01:12;;;;;;;20.63;9.98;;;;;;;4.34;100.00;92884.13;4916709;29;20131;-86
2021/12/05 14:03:56;;;;;;;20.58;10.68;;;;;;;4.28;100.00;92885.19;4916310;29;20131;-87
2021/12/05 14:06:43;;;;;;;29.15;15.52;;;;;;;4.30;100.00;92898.66;4916425;29;20131;-86
2021/12/05 14:09:31;;;;;;;18.25;9.40;;;;;;;4.60;100.00;92902.19;4901261;29;20126;-87
2021/12/05 14:12:19;;;;;;;20.15;10.23;;;;;;;4.53;100.00;92895.47;4918853;29;20040;-87
2021/12/05 14:14:53;;;;;;;31.33;17.50;;;;;;;4.35;100.00;92909.00;4901449;29;20055;-87
2021/12/05 14:17:22;;;;;;;40.78;20.42;;;;;;;4.28;100.00;92896.31;4900847;29;20066;-87
2021/12/05 14:19:50;;;;;;;48.65;24.83;;;;;;;3.93;100.00;92901.31;4900355;29;20139;-87
2021/12/05 14:22:19;;;;;;;45.35;23.00;;;;;;;3.90;100.00;92921.81;4900553;29;20462;-87
2021/12/05 14:24:47;;;;;;;35.08;17.77;;;;;;;3.96;100.00;92920.75;4905307;29;20031;-87
2021/12/05 14:27:17;;;;;;;40.15;20.02;;;;;;;4.22;100.00;92923.31;4919122;29;20521;-87
2021/12/05 14:29:44;;;;;;;46.50;24.02;;;;;;;3.98;100.00;92931.63;4919261;29;20024;-87
2021/12/05 14:32:20;;;;;;;56.67;25.65;;;;;;;3.88;100.00;92937.59;4919353;29;20024;-87
2021/12/05 14:34:47;;;;;;;36.13;18.58;;;;;;;3.88;100.00;92952.38;4919293;29;20082;-87
2021/12/05 14:37:16;;;;;;;15.88;8.32;;;;;;;4.01;100.00;92951.81;4919295;29;20048;-87
2021/12/05 14:39:43;;;;;;;3.35;1.88;;;;;;;3.96;100.00;92951.84;4919351;29;20434;-86
2021/12/05 14:42:16;;;;;;;3.95;2.10;;;;;;;4.08;100.00;92954.16;4919061;29;20031;-86
2021/12/05 14:44:42;;;;;;;7.67;2.90;;;;;;;4.11;100.00;92943.28;4903526;29;20111;-86
2021/12/05 14:47:12;;;;;;;4.13;1.48;;;;;;;4.10;100.00;92942.50;4918753;29;20291;-86
2021/12/05 14:49:40;;;;;;;26.10;12.00;;;;;;;3.87;100.00;92940.44;4894349;29;20033;-87
2021/12/05 14:52:18;;;;;;;4.50;2.40;;;;;;;3.65;100.00;92934.47;4884533;29;20120;-86
2021/12/05 14:54:44;;;;;;;1.60;0.80;;;;;;;3.62;100.00;92934.25;4900202;29;20040;-86
2021/12/05 14:57:18;;;;;;;1.80;0.75;;;;;;;3.61;100.00;92936.03;4893327;29;20028;-87
2021/12/05 14:59:47;;;;;;;1.25;0.70;;;;;;;3.50;100.00;92931.88;4899923;29;20147;-87
2021/12/05 15:02:16;;;;;;;0.40;0.40;;;;;;;3.35;100.00;92940.44;4869359;29;20438;-86
2021/12/05 15:07:37;;;;;;;1.35;0.30;;;;;;;3.43;100.00;92926.19;4900384;29;20157;-87
2021/12/05 15:10:04;;;;;;;1.15;0.40;;;;;;;3.42;100.00;92935.00;4893999;29;20137;-86
2021/12/05 15:12:33;;;;;;;1.17;0.50;;;;;;;3.54;100.00;92928.53;4901832;29;20032;-86
2021/12/05 15:15:01;;;;;;;0.73;0.40;;;;;;;3.46;100.00;92941.22;4918563;29;20079;-86
2021/12/05 15:17:29;;;;;;;0.65;0.40;;;;;;;3.44;100.00;92925.16;4914186;29;20028;-87
2021/12/05 15:19:59;;;;;;;0.75;0.40;;;;;;;3.42;100.00;92935.00;4884398;29;20028;-86
2021/12/05 15:22:24;;;;;;;1.33;0.43;;;;;;;3.32;100.00;92921.00;4902868;29;20036;-87
2021/12/05 15:27:38;;;;;;;1.85;0.40;;;;;;;3.33;100.00;92914.78;4901614;29;20096;-85
2021/12/05 15:30:11;;;;;;;0.47;0.30;;;;;;;3.34;100.00;92918.94;4904288;29;20095;-86
2021/12/05 15:32:37;;;;;;;0.60;0.40;;;;;;;3.28;100.00;92911.41;4903068;29;20036;-85
2021/12/05 15:35:06;;;;;;;0.38;0.38;;;;;;;3.09;100.00;92919.66;4914303;29;20042;-85
2021/12/05 15:37:31;;;;;;;0.98;0.35;;;;;;;3.23;100.00;92925.91;4906319;29;20130;-85
2021/12/05 15:39:58;;;;;;;1.10;0.43;;;;;;;3.21;100.00;92935.75;4921781;29;20111;-85
2021/12/05 15:42:31;;;;;;;0.43;0.30;;;;;;;3.19;100.00;92937.81;4921761;29;20084;-85
2021/12/05 15:44:59;;;;;;;2.53;0.63;;;;;;;3.06;100.00;92931.31;4906226;29;20039;-84
2021/12/05 15:47:30;;;;;;;1.05;0.80;;;;;;;2.72;100.00;92936.09;4906087;29;20028;-86
2021/12/05 15:49:59;;;;;;;1.67;0.70;;;;;;;2.63;100.00;92931.44;4905942;29;20139;-86
2021/12/05 15:52:55;;;;;;;1.60;0.80;;;;;;;2.46;100.00;92936.00;4921509;29;20402;-85
2021/12/05 15:55:24;;;;;;;1.77;0.90;;;;;;;2.40;100.00;92946.31;4921727;29;20337;-86
2021/12/05 15:58:07;;;;;;;1.08;0.73;;;;;;;2.35;100.00;92954.06;4937311;29;20028;-86
2021/12/05 16:00:37;;;;;;;2.60;0.77;;;;;;;2.38;100.00;92956.13;4921742;29;20036;-86
2021/12/05 16:03:12;;;;;;;1.30;0.70;;;;;;;2.50;100.00;92965.50;4905849;29;20448;-86
2021/12/05 16:05:39;;;;;;;0.98;0.68;;;;;;;2.54;100.00;92967.34;4936912;29;20034;-86
2021/12/05 16:08:14;;;;;;;3.70;0.90;;;;;;;2.43;100.00;92968.31;4921851;29;20096;-86
2021/12/05 16:10:43;;;;;;;2.42;0.93;;;;;;;2.58;100.00;92967.59;4921645;29;20036;-85
2021/12/05 16:13:15;;;;;;;1.60;1.00;;;;;;;2.39;100.00;92964.69;4905758;29;20134;-84
2021/12/05 16:15:45;;;;;;;1.45;0.90;;;;;;;2.14;100.00;92960.13;4907283;29;20186;-85
2021/12/05 16:18:11;;;;;;;2.50;1.02;;;;;;;2.14;100.00;92971.25;4902349;29;20032;-85
2021/12/05 16:20:44;;;;;;;2.75;1.08;;;;;;;2.29;100.00;92978.28;4903430;29;20036;-86
2021/12/05 16:23:18;;;;;;;2.13;1.20;;;;;;;2.33;100.00;92987.13;4912030;29;20040;-85
2021/12/05 16:25:58;;;;;;;2.60;0.82;;;;;;;2.62;95.79;92991.16;4917417;29;20032;-86
2021/12/05 16:28:27;;;;;;;2.75;0.90;;;;;;;2.62;95.90;92988.56;4902067;29;20029;-86
2021/12/05 16:31:11;;;;;;;1.30;0.90;;;;;;;2.55;99.15;92996.53;4904401;29;20044;-86
2021/12/05 16:33:37;;;;;;;1.08;0.70;;;;;;;2.60;93.69;92996.59;4921665;29;20040;-86
2021/12/05 16:36:04;;;;;;;2.53;1.20;;;;;;;2.47;97.29;92986.69;4905132;29;20031;-86
2021/12/05 16:41:48;;;;;;;2.03;1.08;;;;;;;2.15;100.00;92995.25;4916634;29;20040;-85
2021/12/05 16:44:25;;;;;;;3.15;1.48;;;;;;;2.07;100.00;92996.50;4908674;29;20477;-85
2021/12/05 16:46:57;;;;;;;3.80;1.95;;;;;;;2.16;100.00;92997.59;4912299;29;20036;-86
2021/12/05 16:49:32;;;;;;;4.70;2.45;;;;;;;1.98;100.00;92993.59;4901976;29;20036;-87
2021/12/05 16:52:01;;;;;;;5.07;2.42;;;;;;;2.05;100.00;92990.81;4900814;29;20341;-86
2021/12/05 16:54:30;;;;;;;6.32;3.33;;;;;;;2.00;100.00;92991.53;4895278;29;20038;-86
2021/12/05 16:56:58;;;;;;;7.60;3.28;;;;;;;1.98;100.00;92988.44;4904078;29;20123;-86
2021/12/05 16:59:30;;;;;;;4.60;2.03;;;;;;;1.59;100.00;92991.22;4913203;29;20035;-87
2021/12/05 17:05:07;;;;;;;6.17;3.27;;;;;;;1.03;100.00;93005.13;4916479;29;20124;-86
2021/12/05 17:07:54;;;;;;;8.88;3.50;;;;;;;0.95;100.00;93008.91;4896717;29;20280;-86
2021/12/05 17:10:22;;;;;;;5.80;2.88;;;;;;;0.88;100.00;93013.44;4912264;29;20036;-87
2021/12/05 17:12:49;;;;;;;8.00;3.65;;;;;;;0.72;100.00;93012.47;4905946;29;20039;-87
2021/12/05 17:15:21;;;;;;;7.22;3.97;;;;;;;0.61;100.00;93017.53;4911175;29;20084;-87
2021/12/05 17:17:48;;;;;;;7.07;3.45;;;;;;;0.70;100.00;93010.91;4908405;29;20032;-87
2021/12/05 17:20:27;;;;;;;12.05;4.00;;;;;;;0.76;100.00;93014.34;4920186;29;20034;-87
2021/12/05 17:23:04;;;;;;;6.57;2.60;;;;;;;0.76;100.00;93018.72;4935788;29;20437;-86
2021/12/05 17:25:35;;;;;;;3.75;2.40;;;;;;;0.91;100.00;93016.34;4916760;29;20056;-87
2021/12/05 17:28:04;;;;;;;154.15;56.35;;;;;;;0.72;100.00;93021.00;4908932;29;20473;-87
2021/12/05 17:30:30;;;;;;;6.13;2.58;;;;;;;0.77;100.00;93018.47;4911645;29;20032;-87
2021/12/05 17:32:56;;;;;;;6.78;2.80;;;;;;;0.92;100.00;93015.31;4907691;29;20434;-87
2021/12/05 17:35:25;;;;;;;4.18;2.20;;;;;;;0.98;100.00;93011.75;4913070;29;20036;-88
2021/12/05 17:37:51;;;;;;;5.25;2.60;;;;;;;0.78;100.00;93020.03;4902547;29;20107;-87
2021/12/05 17:40:16;;;;;;;6.75;3.05;;;;;;;0.88;100.00;93018.59;4907126;29;20040;-87
2021/12/05 17:42:44;;;;;;;8.32;3.25;;;;;;;0.92;100.00;93025.63;4911146;29;20043;-87
2021/12/05 17:45:11;;;;;;;8.50;3.08;;;;;;;0.86;100.00;93033.53;4911014;29;20044;-88
2021/12/05 17:47:37;;;;;;;8.57;4.20;;;;;;;0.72;100.00;93023.56;4912037;29;20323;-88
2021/12/05 17:50:07;;;;;;;9.27;4.70;;;;;;;0.61;100.00;93027.84;4904260;29;20043;-88
2021/12/05 17:52:51;;;;;;;11.27;5.03;;;;;;;0.56;100.00;93031.13;4919816;29;20036;-88
2021/12/05 17:55:25;;;;;;;12.70;4.75;;;;;;;0.49;100.00;93040.03;4891888;29;20072;-88
2021/12/05 17:58:06;;;;;;;7.97;3.10;;;;;;;0.51;100.00;93043.94;4917512;29;20031;-85
2021/12/05 18:00:56;;;;;;;8.48;4.40;;;;;;;0.58;100.00;93048.13;4905729;29;20342;-85
2021/12/05 18:03:22;;;;;;;14.80;4.93;;;;;;;0.48;100.00;93046.22;4919460;29;20431;-85
2021/12/05 18:05:49;;;;;;;9.10;5.30;;;;;;;0.53;100.00;93046.25;4916075;29;20130;-85
2021/12/05 18:08:20;;;;;;;11.25;5.28;;;;;;;0.37;100.00;93043.47;4900477;29;20028;-84
2021/12/05 18:10:51;;;;;;;8.25;4.65;;;;;;;0.17;100.00;93043.97;4900509;29;20055;-84
2021/12/05 18:13:22;;;;;;;13.60;6.78;;;;;;;0.22;100.00;93040.69;4900466;29;20454;-84
2021/12/05 18:15:56;;;;;;;11.63;5.47;;;;;;;0.30;100.00;93044.66;4915668;29;20426;-84
2021/12/05 18:18:23;;;;;;;14.43;7.28;;;;;;;0.37;100.00;93034.97;4907398;29;20104;-84
2021/12/05 18:20:49;;;;;;;13.43;5.97;;;;;;;0.32;100.00;93034.88;4902207;29;20430;-84
2021/12/05 18:23:14;;;;;;;48.88;24.63;;;;;;;0.24;100.00;93042.00;4907916;29;20047;-85
2021/12/05 18:25:59;;;;;;;20.58;8.10;;;;;;;0.17;100.00;93046.53;4907904;29;20123;-84
2021/12/05 18:28:24;;;;;;;15.13;7.38;;;;;;;0.03;100.00;93048.66;4913007;29;20095;-85
2021/12/05 18:30:53;;;;;;;12.85;5.93;;;;;;;-0.21;100.00;93051.34;4910024;29;20115;-84
2021/12/05 18:33:21;;;;;;;14.00;6.20;;;;;;;-0.29;100.00;93049.94;4893740;29;21232;-85
2021/12/05 18:35:47;;;;;;;14.07;5.97;;;;;;;-0.31;100.00;93051.97;4903138;29;20358;-85
2021/12/05 18:38:14;;;;;;;10.32;5.40;;;;;;;-0.29;100.00;93051.72;4915839;29;20028;-85
2021/12/05 18:40:44;;;;;;;11.68;5.35;;;;;;;-0.29;100.00;93052.50;4907783;29;20033;-85
2021/12/05 18:43:10;;;;;;;10.40;4.97;;;;;;;-0.33;100.00;93061.72;4891640;29;20032;-85
2021/12/05 18:45:39;;;;;;;12.13;4.88;;;;;;;-0.28;100.00;93061.03;4890687;29;20108;-85
2021/12/05 18:48:06;;;;;;;9.73;4.72;;;;;;;-0.21;100.00;93061.66;4903777;29;20124;-85
2021/12/05 18:50:50;;;;;;;9.57;4.80;;;;;;;-0.12;100.00;93067.19;4892683;29;20044;-85
2021/12/05 18:53:17;;;;;;;9.05;4.65;;;;;;;-0.07;100.00;93058.78;4907348;29;20037;-85
2021/12/05 18:58:28;;;;;;;8.93;4.32;;;;;;;-0.07;100.00;93069.88;4904590;29;20126;-85
2021/12/05 19:06:38;;;;;;;8.07;3.70;;;;;;;-0.11;100.00;93076.47;4909289;29;20078;-85
2021/12/05 19:11:55;;;;;;;8.82;4.15;;;;;;;-0.20;100.00;93085.63;4923576;29;20087;-85